sensor_id;sensor_type;location;lat;lon;timestamp;P1;durP1;ratioP1;P2;durP2;ratioP2
68178;SDS011;54998;42.656;23.382;2023-03-01T00:01:09;5.22;;;2.58;;
68178;SDS011;54998;42.656;23.382;2023-03-01T00:03:36;3.22;;;1.35;;
68178;SDS011;54998;42.656;23.382;2023-03-01T00:06:01;3.72;;;1.77;;
68178;SDS011;54998;42.656;23.382;2023-03-01T00:08:27;3.15;;;1.83;;
68178;SDS011;54998;42.656;23.382;2023-03-01T00:13:26;5.32;;;2.53;;
68178;SDS011;54998;42.656;23.382;2023-03-01T00:15:52;5.38;;;2.28;;
68178;SDS011;54998;42.656;23.382;2023-03-01T00:18:17;4.78;;;2.30;;
68178;SDS011;54998;42.656;23.382;2023-03-01T00:20:49;5.07;;;2.17;;
68178;SDS011;54998;42.656;23.382;2023-03-01T00:23:15;3.03;;;1.30;;
68178;SDS011;54998;42.656;23.382;2023-03-01T00:25:41;5.35;;;2.63;;
68178;SDS011;54998;42.656;23.382;2023-03-01T00:28:07;3.13;;;1.52;;
68178;SDS011;54998;42.656;23.382;2023-03-01T00:30:32;4.55;;;1.92;;
68178;SDS011;54998;42.656;23.382;2023-03-01T00:32:58;4.72;;;1.90;;
68178;SDS011;54998;42.656;23.382;2023-03-01T00:35:23;2.65;;;1.17;;
68178;SDS011;54998;42.656;23.382;2023-03-01T00:37:48;4.35;;;2.30;;
68178;SDS011;54998;42.656;23.382;2023-03-01T00:42:47;2.75;;;1.23;;
68178;SDS011;54998;42.656;23.382;2023-03-01T00:45:13;4.90;;;1.58;;
68178;SDS011;54998;42.656;23.382;2023-03-01T00:47:38;2.33;;;1.35;;
68178;SDS011;54998;42.656;23.382;2023-03-01T00:50:04;4.55;;;1.90;;
68178;SDS011;54998;42.656;23.382;2023-03-01T00:52:29;4.72;;;2.05;;
68178;SDS011;54998;42.656;23.382;2023-03-01T00:54:55;5.13;;;2.15;;
68178;SDS011;54998;42.656;23.382;2023-03-01T00:57:20;6.43;;;2.33;;
68178;SDS011;54998;42.656;23.382;2023-03-01T00:59:46;3.40;;;1.80;;
68178;SDS011;54998;42.656;23.382;2023-03-01T01:02:11;4.28;;;1.95;;
68178;SDS011;54998;42.656;23.382;2023-03-01T01:07:05;3.47;;;1.80;;
68178;SDS011;54998;42.656;23.382;2023-03-01T01:09:30;3.20;;;1.70;;
68178;SDS011;54998;42.656;23.382;2023-03-01T01:11:56;2.83;;;1.52;;
68178;SDS011;54998;42.656;23.382;2023-03-01T01:14:21;2.92;;;1.73;;
68178;SDS011;54998;42.656;23.382;2023-03-01T01:16:47;4.00;;;1.77;;
68178;SDS011;54998;42.656;23.382;2023-03-01T01:19:12;1.83;;;1.13;;
68178;SDS011;54998;42.656;23.382;2023-03-01T01:21:38;2.65;;;1.70;;
68178;SDS011;54998;42.656;23.382;2023-03-01T01:24:04;2.20;;;1.45;;
68178;SDS011;54998;42.656;23.382;2023-03-01T01:26:31;3.78;;;1.95;;
68178;SDS011;54998;42.656;23.382;2023-03-01T01:28:58;2.55;;;1.40;;
68178;SDS011;54998;42.656;23.382;2023-03-01T01:31:25;2.03;;;1.17;;
68178;SDS011;54998;42.656;23.382;2023-03-01T01:33:53;1.73;;;1.08;;
68178;SDS011;54998;42.656;23.382;2023-03-01T01:36:20;1.63;;;1.05;;
68178;SDS011;54998;42.656;23.382;2023-03-01T01:38:45;1.70;;;1.00;;
68178;SDS011;54998;42.656;23.382;2023-03-01T01:41:11;1.63;;;1.35;;
68178;SDS011;54998;42.656;23.382;2023-03-01T01:43:41;2.72;;;1.52;;
68178;SDS011;54998;42.656;23.382;2023-03-01T01:52:04;3.90;;;2.20;;
68178;SDS011;54998;42.656;23.382;2023-03-01T01:54:37;1.73;;;0.90;;
68178;SDS011;54998;42.656;23.382;2023-03-01T01:57:07;3.63;;;2.17;;
68178;SDS011;54998;42.656;23.382;2023-03-01T01:59:36;2.58;;;1.50;;
68178;SDS011;54998;42.656;23.382;2023-03-01T02:02:04;2.47;;;1.73;;
68178;SDS011;54998;42.656;23.382;2023-03-01T02:04:30;1.83;;;1.23;;
68178;SDS011;54998;42.656;23.382;2023-03-01T02:07:03;2.63;;;1.63;;
68178;SDS011;54998;42.656;23.382;2023-03-01T02:09:48;2.00;;;1.15;;
68178;SDS011;54998;42.656;23.382;2023-03-01T02:12:17;2.47;;;1.38;;
68178;SDS011;54998;42.656;23.382;2023-03-01T02:14:44;2.47;;;1.50;;
68178;SDS011;54998;42.656;23.382;2023-03-01T02:17:11;4.20;;;2.13;;
68178;SDS011;54998;42.656;23.382;2023-03-01T02:27:20;3.55;;;1.83;;
68178;SDS011;54998;42.656;23.382;2023-03-01T02:29:49;2.15;;;1.27;;
68178;SDS011;54998;42.656;23.382;2023-03-01T02:32:15;2.40;;;1.60;;
68178;SDS011;54998;42.656;23.382;2023-03-01T02:34:50;3.63;;;1.92;;
68178;SDS011;54998;42.656;23.382;2023-03-01T02:37:17;3.15;;;1.73;;
68178;SDS011;54998;42.656;23.382;2023-03-01T02:39:51;4.07;;;2.08;;
68178;SDS011;54998;42.656;23.382;2023-03-01T02:44:58;3.05;;;1.83;;
68178;SDS011;54998;42.656;23.382;2023-03-01T02:47:23;4.22;;;2.10;;
68178;SDS011;54998;42.656;23.382;2023-03-01T02:49:48;3.85;;;2.13;;
68178;SDS011;54998;42.656;23.382;2023-03-01T02:55:11;2.85;;;1.42;;
68178;SDS011;54998;42.656;23.382;2023-03-01T02:57:42;5.82;;;2.47;;
68178;SDS011;54998;42.656;23.382;2023-03-01T03:00:11;5.22;;;1.80;;
68178;SDS011;54998;42.656;23.382;2023-03-01T03:02:44;3.17;;;1.15;;
68178;SDS011;54998;42.656;23.382;2023-03-01T03:05:15;1.90;;;1.38;;
68178;SDS011;54998;42.656;23.382;2023-03-01T03:07:45;1.65;;;1.20;;
68178;SDS011;54998;42.656;23.382;2023-03-01T03:10:15;4.78;;;2.28;;
68178;SDS011;54998;42.656;23.382;2023-03-01T03:13:29;3.45;;;1.90;;
68178;SDS011;54998;42.656;23.382;2023-03-01T03:15:37;2.92;;;1.65;;
68178;SDS011;54998;42.656;23.382;2023-03-01T03:18:04;3.97;;;2.17;;
68178;SDS011;54998;42.656;23.382;2023-03-01T03:20:36;2.20;;;1.00;;
68178;SDS011;54998;42.656;23.382;2023-03-01T03:23:03;5.85;;;1.38;;
68178;SDS011;54998;42.656;23.382;2023-03-01T03:25:28;2.75;;;1.58;;
68178;SDS011;54998;42.656;23.382;2023-03-01T03:27:54;3.35;;;1.48;;
68178;SDS011;54998;42.656;23.382;2023-03-01T03:30:28;0.98;;;0.70;;
68178;SDS011;54998;42.656;23.382;2023-03-01T03:32:56;3.30;;;1.65;;
68178;SDS011;54998;42.656;23.382;2023-03-01T03:35:27;3.70;;;1.77;;
68178;SDS011;54998;42.656;23.382;2023-03-01T03:37:58;2.00;;;1.17;;
68178;SDS011;54998;42.656;23.382;2023-03-01T03:40:35;5.28;;;2.10;;
68178;SDS011;54998;42.656;23.382;2023-03-01T03:43:03;3.50;;;1.50;;
68178;SDS011;54998;42.656;23.382;2023-03-01T03:45:48;2.35;;;0.90;;
68178;SDS011;54998;42.656;23.382;2023-03-01T03:48:15;1.95;;;1.10;;
68178;SDS011;54998;42.656;23.382;2023-03-01T03:50:46;4.10;;;2.05;;
68178;SDS011;54998;42.656;23.382;2023-03-01T03:53:13;1.95;;;0.93;;
68178;SDS011;54998;42.656;23.382;2023-03-01T03:55:39;3.10;;;1.70;;
68178;SDS011;54998;42.656;23.382;2023-03-01T03:58:05;1.85;;;1.10;;
68178;SDS011;54998;42.656;23.382;2023-03-01T04:00:32;1.92;;;0.75;;
68178;SDS011;54998;42.656;23.382;2023-03-01T04:03:02;3.55;;;1.13;;
68178;SDS011;54998;42.656;23.382;2023-03-01T04:05:27;2.22;;;0.85;;
68178;SDS011;54998;42.656;23.382;2023-03-01T04:07:53;2.13;;;1.05;;
68178;SDS011;54998;42.656;23.382;2023-03-01T04:10:26;3.08;;;1.40;;
68178;SDS011;54998;42.656;23.382;2023-03-01T04:12:54;3.30;;;1.30;;
68178;SDS011;54998;42.656;23.382;2023-03-01T04:15:21;2.90;;;1.48;;
68178;SDS011;54998;42.656;23.382;2023-03-01T04:17:49;2.75;;;1.30;;
68178;SDS011;54998;42.656;23.382;2023-03-01T04:20:18;1.00;;;0.77;;
68178;SDS011;54998;42.656;23.382;2023-03-01T04:28:19;5.63;;;2.17;;
68178;SDS011;54998;42.656;23.382;2023-03-01T04:30:49;3.60;;;1.92;;
68178;SDS011;54998;42.656;23.382;2023-03-01T04:33:15;2.88;;;1.38;;
68178;SDS011;54998;42.656;23.382;2023-03-01T04:35:41;2.85;;;1.30;;
68178;SDS011;54998;42.656;23.382;2023-03-01T04:38:06;1.27;;;0.80;;
68178;SDS011;54998;42.656;23.382;2023-03-01T04:40:32;4.20;;;2.13;;
68178;SDS011;54998;42.656;23.382;2023-03-01T04:42:58;2.38;;;0.93;;
68178;SDS011;54998;42.656;23.382;2023-03-01T04:45:24;3.13;;;1.50;;
68178;SDS011;54998;42.656;23.382;2023-03-01T04:47:49;3.58;;;1.98;;
68178;SDS011;54998;42.656;23.382;2023-03-01T04:50:17;1.77;;;1.02;;
68178;SDS011;54998;42.656;23.382;2023-03-01T04:52:45;2.13;;;1.30;;
68178;SDS011;54998;42.656;23.382;2023-03-01T04:55:12;1.42;;;0.80;;
68178;SDS011;54998;42.656;23.382;2023-03-01T04:57:38;5.00;;;1.90;;
68178;SDS011;54998;42.656;23.382;2023-03-01T05:00:04;2.20;;;1.20;;
68178;SDS011;54998;42.656;23.382;2023-03-01T05:02:45;3.20;;;1.40;;
68178;SDS011;54998;42.656;23.382;2023-03-01T05:05:18;2.65;;;1.17;;
68178;SDS011;54998;42.656;23.382;2023-03-01T05:07:56;2.67;;;1.25;;
68178;SDS011;54998;42.656;23.382;2023-03-01T05:10:24;2.05;;;1.13;;
68178;SDS011;54998;42.656;23.382;2023-03-01T05:12:51;1.70;;;0.88;;
68178;SDS011;54998;42.656;23.382;2023-03-01T05:15:18;2.53;;;1.63;;
68178;SDS011;54998;42.656;23.382;2023-03-01T05:17:44;4.95;;;1.63;;
68178;SDS011;54998;42.656;23.382;2023-03-01T05:20:10;2.30;;;1.45;;
68178;SDS011;54998;42.656;23.382;2023-03-01T05:22:35;2.63;;;1.70;;
68178;SDS011;54998;42.656;23.382;2023-03-01T05:25:01;2.97;;;1.77;;
68178;SDS011;54998;42.656;23.382;2023-03-01T05:27:28;2.30;;;1.20;;
68178;SDS011;54998;42.656;23.382;2023-03-01T05:29:54;3.47;;;1.75;;
68178;SDS011;54998;42.656;23.382;2023-03-01T05:32:20;2.97;;;1.85;;
68178;SDS011;54998;42.656;23.382;2023-03-01T05:34:45;3.08;;;1.35;;
68178;SDS011;54998;42.656;23.382;2023-03-01T05:37:11;7.22;;;1.35;;
68178;SDS011;54998;42.656;23.382;2023-03-01T05:39:38;4.07;;;1.70;;
68178;SDS011;54998;42.656;23.382;2023-03-01T05:42:03;5.43;;;1.95;;
68178;SDS011;54998;42.656;23.382;2023-03-01T05:44:29;3.60;;;1.50;;
68178;SDS011;54998;42.656;23.382;2023-03-01T05:46:55;4.25;;;1.75;;
68178;SDS011;54998;42.656;23.382;2023-03-01T05:49:21;2.45;;;1.42;;
68178;SDS011;54998;42.656;23.382;2023-03-01T05:51:51;3.28;;;1.95;;
68178;SDS011;54998;42.656;23.382;2023-03-01T05:56:43;2.20;;;1.02;;
68178;SDS011;54998;42.656;23.382;2023-03-01T05:59:09;3.20;;;1.70;;
68178;SDS011;54998;42.656;23.382;2023-03-01T06:01:35;2.88;;;1.58;;
68178;SDS011;54998;42.656;23.382;2023-03-01T06:04:02;2.28;;;0.98;;
68178;SDS011;54998;42.656;23.382;2023-03-01T06:06:29;2.55;;;1.08;;
68178;SDS011;54998;42.656;23.382;2023-03-01T06:08:55;4.35;;;2.17;;
68178;SDS011;54998;42.656;23.382;2023-03-01T06:11:21;3.88;;;1.75;;
68178;SDS011;54998;42.656;23.382;2023-03-01T06:13:46;1.60;;;0.95;;
68178;SDS011;54998;42.656;23.382;2023-03-01T06:16:12;3.53;;;1.55;;
68178;SDS011;54998;42.656;23.382;2023-03-01T06:18:39;4.05;;;1.80;;
68178;SDS011;54998;42.656;23.382;2023-03-01T06:21:05;6.20;;;2.28;;
68178;SDS011;54998;42.656;23.382;2023-03-01T06:23:32;3.58;;;1.75;;
68178;SDS011;54998;42.656;23.382;2023-03-01T06:25:57;2.47;;;1.38;;
68178;SDS011;54998;42.656;23.382;2023-03-01T06:28:23;3.33;;;1.88;;
68178;SDS011;54998;42.656;23.382;2023-03-01T06:30:49;4.50;;;2.33;;
68178;SDS011;54998;42.656;23.382;2023-03-01T06:33:15;5.32;;;2.30;;
68178;SDS011;54998;42.656;23.382;2023-03-01T06:35:40;5.05;;;1.95;;
68178;SDS011;54998;42.656;23.382;2023-03-01T06:38:06;4.70;;;2.30;;
68178;SDS011;54998;42.656;23.382;2023-03-01T06:40:32;4.70;;;1.98;;
68178;SDS011;54998;42.656;23.382;2023-03-01T06:43:00;2.75;;;1.08;;
68178;SDS011;54998;42.656;23.382;2023-03-01T06:45:25;2.15;;;0.95;;
68178;SDS011;54998;42.656;23.382;2023-03-01T06:47:51;3.50;;;1.58;;
68178;SDS011;54998;42.656;23.382;2023-03-01T06:50:17;2.10;;;1.00;;
68178;SDS011;54998;42.656;23.382;2023-03-01T06:52:43;1.67;;;1.02;;
68178;SDS011;54998;42.656;23.382;2023-03-01T06:55:10;1.13;;;0.95;;
68178;SDS011;54998;42.656;23.382;2023-03-01T06:57:36;2.95;;;1.08;;
68178;SDS011;54998;42.656;23.382;2023-03-01T07:00:03;1.77;;;1.23;;
68178;SDS011;54998;42.656;23.382;2023-03-01T07:02:29;2.03;;;1.30;;
68178;SDS011;54998;42.656;23.382;2023-03-01T07:04:55;3.25;;;1.70;;
68178;SDS011;54998;42.656;23.382;2023-03-01T07:07:20;1.58;;;1.02;;
68178;SDS011;54998;42.656;23.382;2023-03-01T07:09:46;2.35;;;1.40;;
68178;SDS011;54998;42.656;23.382;2023-03-01T07:12:13;1.25;;;0.85;;
68178;SDS011;54998;42.656;23.382;2023-03-01T07:14:38;2.25;;;1.17;;
68178;SDS011;54998;42.656;23.382;2023-03-01T07:17:04;1.95;;;1.02;;
68178;SDS011;54998;42.656;23.382;2023-03-01T07:19:29;2.63;;;1.50;;
68178;SDS011;54998;42.656;23.382;2023-03-01T07:21:54;2.53;;;1.40;;
68178;SDS011;54998;42.656;23.382;2023-03-01T07:24:21;1.60;;;1.08;;
68178;SDS011;54998;42.656;23.382;2023-03-01T07:26:49;1.67;;;0.82;;
68178;SDS011;54998;42.656;23.382;2023-03-01T07:29:15;3.53;;;1.63;;
68178;SDS011;54998;42.656;23.382;2023-03-01T07:31:41;2.88;;;1.30;;
68178;SDS011;54998;42.656;23.382;2023-03-01T07:34:06;2.28;;;0.80;;
68178;SDS011;54998;42.656;23.382;2023-03-01T07:36:35;1.33;;;0.65;;
68178;SDS011;54998;42.656;23.382;2023-03-01T07:39:01;1.98;;;0.95;;
68178;SDS011;54998;42.656;23.382;2023-03-01T07:41:28;2.60;;;1.40;;
68178;SDS011;54998;42.656;23.382;2023-03-01T07:43:54;0.82;;;0.70;;
68178;SDS011;54998;42.656;23.382;2023-03-01T07:46:20;2.67;;;1.10;;
68178;SDS011;54998;42.656;23.382;2023-03-01T07:48:47;1.63;;;0.90;;
68178;SDS011;54998;42.656;23.382;2023-03-01T07:51:12;1.23;;;0.95;;
68178;SDS011;54998;42.656;23.382;2023-03-01T07:53:38;3.33;;;1.38;;
68178;SDS011;54998;42.656;23.382;2023-03-01T07:56:10;4.35;;;1.40;;
68178;SDS011;54998;42.656;23.382;2023-03-01T07:58:38;1.95;;;1.10;;
68178;SDS011;54998;42.656;23.382;2023-03-01T08:01:06;3.58;;;1.50;;
68178;SDS011;54998;42.656;23.382;2023-03-01T08:03:37;4.00;;;0.77;;
68178;SDS011;54998;42.656;23.382;2023-03-01T08:06:03;4.55;;;1.67;;
68178;SDS011;54998;42.656;23.382;2023-03-01T08:09:14;5.60;;;2.00;;
68178;SDS011;54998;42.656;23.382;2023-03-01T08:11:39;2.15;;;1.25;;
68178;SDS011;54998;42.656;23.382;2023-03-01T08:14:05;2.72;;;0.77;;
68178;SDS011;54998;42.656;23.382;2023-03-01T08:16:31;2.72;;;1.15;;
68178;SDS011;54998;42.656;23.382;2023-03-01T08:19:03;0.95;;;0.73;;
68178;SDS011;54998;42.656;23.382;2023-03-01T08:21:32;3.63;;;1.45;;
68178;SDS011;54998;42.656;23.382;2023-03-01T08:26:25;3.25;;;1.48;;
68178;SDS011;54998;42.656;23.382;2023-03-01T08:28:50;3.38;;;1.83;;
68178;SDS011;54998;42.656;23.382;2023-03-01T08:31:20;1.98;;;0.90;;
68178;SDS011;54998;42.656;23.382;2023-03-01T08:33:49;2.97;;;1.38;;
68178;SDS011;54998;42.656;23.382;2023-03-01T08:36:20;5.85;;;2.40;;
68178;SDS011;54998;42.656;23.382;2023-03-01T08:38:46;2.72;;;1.27;;
68178;SDS011;54998;42.656;23.382;2023-03-01T08:41:11;5.22;;;2.25;;
68178;SDS011;54998;42.656;23.382;2023-03-01T08:43:37;2.88;;;1.25;;
68178;SDS011;54998;42.656;23.382;2023-03-01T08:54:35;3.00;;;1.85;;
68178;SDS011;54998;42.656;23.382;2023-03-01T08:57:01;2.92;;;1.40;;
68178;SDS011;54998;42.656;23.382;2023-03-01T08:59:28;2.78;;;1.42;;
68178;SDS011;54998;42.656;23.382;2023-03-01T09:01:54;1.13;;;1.02;;
68178;SDS011;54998;42.656;23.382;2023-03-01T09:04:20;3.55;;;2.03;;
68178;SDS011;54998;42.656;23.382;2023-03-01T09:06:46;4.20;;;1.77;;
68178;SDS011;54998;42.656;23.382;2023-03-01T09:09:13;2.67;;;1.50;;
68178;SDS011;54998;42.656;23.382;2023-03-01T09:11:41;4.53;;;1.75;;
68178;SDS011;54998;42.656;23.382;2023-03-01T09:14:06;3.30;;;1.67;;
68178;SDS011;54998;42.656;23.382;2023-03-01T09:16:32;2.33;;;1.45;;
68178;SDS011;54998;42.656;23.382;2023-03-01T09:19:01;1.88;;;1.05;;
68178;SDS011;54998;42.656;23.382;2023-03-01T09:23:53;1.60;;;0.85;;
68178;SDS011;54998;42.656;23.382;2023-03-01T09:26:21;3.95;;;1.58;;
68178;SDS011;54998;42.656;23.382;2023-03-01T09:28:48;1.85;;;0.80;;
68178;SDS011;54998;42.656;23.382;2023-03-01T09:31:15;0.80;;;0.70;;
68178;SDS011;54998;42.656;23.382;2023-03-01T09:33:44;1.00;;;0.63;;
68178;SDS011;54998;42.656;23.382;2023-03-01T09:36:12;1.40;;;0.90;;
68178;SDS011;54998;42.656;23.382;2023-03-01T09:38:40;0.63;;;0.52;;
68178;SDS011;54998;42.656;23.382;2023-03-01T09:41:10;4.43;;;1.35;;
68178;SDS011;54998;42.656;23.382;2023-03-01T09:43:52;1.80;;;1.10;;
68178;SDS011;54998;42.656;23.382;2023-03-01T09:46:24;1.90;;;0.98;;
68178;SDS011;54998;42.656;23.382;2023-03-01T09:51:27;1.77;;;0.80;;
68178;SDS011;54998;42.656;23.382;2023-03-01T09:53:56;1.02;;;0.73;;
68178;SDS011;54998;42.656;23.382;2023-03-01T10:04:26;0.85;;;0.45;;
68178;SDS011;54998;42.656;23.382;2023-03-01T10:09:40;4.85;;;1.33;;
68178;SDS011;54998;42.656;23.382;2023-03-01T10:12:09;1.67;;;0.70;;
68178;SDS011;54998;42.656;23.382;2023-03-01T10:14:39;1.27;;;0.98;;
68178;SDS011;54998;42.656;23.382;2023-03-01T10:19:54;2.83;;;1.08;;
68178;SDS011;54998;42.656;23.382;2023-03-01T10:22:21;0.50;;;0.40;;
68178;SDS011;54998;42.656;23.382;2023-03-01T10:24:53;3.00;;;1.38;;
68178;SDS011;54998;42.656;23.382;2023-03-01T10:27:23;1.52;;;0.95;;
68178;SDS011;54998;42.656;23.382;2023-03-01T10:32:36;0.73;;;0.52;;
68178;SDS011;54998;42.656;23.382;2023-03-01T10:35:14;2.08;;;0.95;;
68178;SDS011;54998;42.656;23.382;2023-03-01T10:37:46;1.75;;;0.70;;
68178;SDS011;54998;42.656;23.382;2023-03-01T10:40:22;1.20;;;0.75;;
68178;SDS011;54998;42.656;23.382;2023-03-01T10:42:48;1.13;;;0.80;;
68178;SDS011;54998;42.656;23.382;2023-03-01T10:47:45;2.65;;;1.23;;
68178;SDS011;54998;42.656;23.382;2023-03-01T10:50:21;3.38;;;1.15;;
68178;SDS011;54998;42.656;23.382;2023-03-01T10:52:58;1.13;;;0.82;;
68178;SDS011;54998;42.656;23.382;2023-03-01T10:55:36;2.35;;;0.77;;
68178;SDS011;54998;42.656;23.382;2023-03-01T10:58:07;6.55;;;1.92;;
68178;SDS011;54998;42.656;23.382;2023-03-01T11:00:33;1.98;;;0.70;;
68178;SDS011;54998;42.656;23.382;2023-03-01T11:03:13;2.30;;;0.98;;
68178;SDS011;54998;42.656;23.382;2023-03-01T11:05:51;1.98;;;1.20;;
68178;SDS011;54998;42.656;23.382;2023-03-01T11:11:29;1.25;;;0.75;;
68178;SDS011;54998;42.656;23.382;2023-03-01T11:14:05;1.77;;;1.00;;
68178;SDS011;54998;42.656;23.382;2023-03-01T11:16:44;2.40;;;1.38;;
68178;SDS011;54998;42.656;23.382;2023-03-01T11:24:49;4.25;;;1.23;;
68178;SDS011;54998;42.656;23.382;2023-03-01T11:30:01;1.88;;;1.15;;
68178;SDS011;54998;42.656;23.382;2023-03-01T11:32:34;2.72;;;1.55;;
68178;SDS011;54998;42.656;23.382;2023-03-01T11:35:14;2.70;;;1.58;;
68178;SDS011;54998;42.656;23.382;2023-03-01T11:40:25;3.85;;;1.75;;
68178;SDS011;54998;42.656;23.382;2023-03-01T11:50:47;3.10;;;1.60;;
68178;SDS011;54998;42.656;23.382;2023-03-01T12:01:22;4.47;;;1.83;;
68178;SDS011;54998;42.656;23.382;2023-03-01T12:06:56;6.55;;;2.92;;
68178;SDS011;54998;42.656;23.382;2023-03-01T12:23:09;5.13;;;2.88;;
68178;SDS011;54998;42.656;23.382;2023-03-01T12:29:00;2.95;;;1.77;;
68178;SDS011;54998;42.656;23.382;2023-03-01T12:32:14;5.22;;;2.60;;
68178;SDS011;54998;42.656;23.382;2023-03-01T12:51:30;2.60;;;1.75;;
68178;SDS011;54998;42.656;23.382;2023-03-01T12:53:59;1.58;;;1.02;;
68178;SDS011;54998;42.656;23.382;2023-03-01T12:56:32;4.15;;;2.08;;
68178;SDS011;54998;42.656;23.382;2023-03-01T13:11:00;4.88;;;2.63;;
68178;SDS011;54998;42.656;23.382;2023-03-01T13:13:29;3.05;;;1.77;;
68178;SDS011;54998;42.656;23.382;2023-03-01T13:15:55;6.38;;;2.50;;
68178;SDS011;54998;42.656;23.382;2023-03-01T13:20:53;4.30;;;2.40;;
68178;SDS011;54998;42.656;23.382;2023-03-01T13:33:54;3.50;;;2.20;;
68178;SDS011;54998;42.656;23.382;2023-03-01T13:46:50;5.85;;;2.78;;
68178;SDS011;54998;42.656;23.382;2023-03-01T13:49:18;6.25;;;2.97;;
68178;SDS011;54998;42.656;23.382;2023-03-01T13:51:47;3.00;;;2.03;;
68178;SDS011;54998;42.656;23.382;2023-03-01T13:54:15;6.95;;;2.33;;
68178;SDS011;54998;42.656;23.382;2023-03-01T13:56:46;6.03;;;3.03;;
68178;SDS011;54998;42.656;23.382;2023-03-01T13:59:13;3.47;;;1.75;;
68178;SDS011;54998;42.656;23.382;2023-03-01T14:01:43;4.88;;;1.60;;
68178;SDS011;54998;42.656;23.382;2023-03-01T14:04:22;5.05;;;2.05;;
68178;SDS011;54998;42.656;23.382;2023-03-01T14:06:50;3.00;;;1.48;;
68178;SDS011;54998;42.656;23.382;2023-03-01T14:09:17;3.63;;;2.40;;
68178;SDS011;54998;42.656;23.382;2023-03-01T14:14:35;4.45;;;2.42;;
68178;SDS011;54998;42.656;23.382;2023-03-01T14:20:11;3.70;;;1.90;;
68178;SDS011;54998;42.656;23.382;2023-03-01T14:22:41;2.55;;;1.23;;
68178;SDS011;54998;42.656;23.382;2023-03-01T14:25:45;5.82;;;2.35;;
68178;SDS011;54998;42.656;23.382;2023-03-01T14:28:11;3.30;;;1.67;;
68178;SDS011;54998;42.656;23.382;2023-03-01T14:30:38;3.10;;;1.42;;
68178;SDS011;54998;42.656;23.382;2023-03-01T14:33:17;5.07;;;2.40;;
68178;SDS011;54998;42.656;23.382;2023-03-01T14:38:37;2.97;;;1.25;;
68178;SDS011;54998;42.656;23.382;2023-03-01T14:41:08;2.55;;;0.95;;
68178;SDS011;54998;42.656;23.382;2023-03-01T14:43:41;3.35;;;1.17;;
68178;SDS011;54998;42.656;23.382;2023-03-01T14:46:17;2.85;;;1.35;;
68178;SDS011;54998;42.656;23.382;2023-03-01T14:51:09;3.35;;;1.85;;
68178;SDS011;54998;42.656;23.382;2023-03-01T14:53:36;5.10;;;2.25;;
68178;SDS011;54998;42.656;23.382;2023-03-01T14:56:02;4.50;;;1.92;;
68178;SDS011;54998;42.656;23.382;2023-03-01T14:58:27;4.32;;;1.58;;
68178;SDS011;54998;42.656;23.382;2023-03-01T15:00:58;5.57;;;1.77;;
68178;SDS011;54998;42.656;23.382;2023-03-01T15:03:36;1.85;;;1.10;;
68178;SDS011;54998;42.656;23.382;2023-03-01T15:06:05;4.13;;;1.60;;
68178;SDS011;54998;42.656;23.382;2023-03-01T15:08:32;4.65;;;2.20;;
68178;SDS011;54998;42.656;23.382;2023-03-01T15:13:47;3.75;;;1.63;;
68178;SDS011;54998;42.656;23.382;2023-03-01T15:16:14;5.78;;;2.28;;
68178;SDS011;54998;42.656;23.382;2023-03-01T15:18:46;5.88;;;3.13;;
68178;SDS011;54998;42.656;23.382;2023-03-01T15:21:17;7.80;;;2.72;;
68178;SDS011;54998;42.656;23.382;2023-03-01T15:23:54;4.90;;;2.30;;
68178;SDS011;54998;42.656;23.382;2023-03-01T15:26:26;6.72;;;2.38;;
68178;SDS011;54998;42.656;23.382;2023-03-01T15:28:55;4.72;;;2.03;;
68178;SDS011;54998;42.656;23.382;2023-03-01T15:31:33;10.43;;;2.88;;
68178;SDS011;54998;42.656;23.382;2023-03-01T15:37:06;5.65;;;1.75;;
68178;SDS011;54998;42.656;23.382;2023-03-01T15:42:45;4.03;;;1.40;;
68178;SDS011;54998;42.656;23.382;2023-03-01T15:47:38;5.40;;;2.17;;
68178;SDS011;54998;42.656;23.382;2023-03-01T15:50:05;5.38;;;1.40;;
68178;SDS011;54998;42.656;23.382;2023-03-01T15:52:41;5.95;;;2.70;;
68178;SDS011;54998;42.656;23.382;2023-03-01T15:57:48;6.55;;;3.38;;
68178;SDS011;54998;42.656;23.382;2023-03-01T16:00:15;6.30;;;3.35;;
68178;SDS011;54998;42.656;23.382;2023-03-01T16:02:42;8.27;;;3.45;;
68178;SDS011;54998;42.656;23.382;2023-03-01T16:05:22;5.22;;;2.25;;
68178;SDS011;54998;42.656;23.382;2023-03-01T16:07:50;7.55;;;3.22;;
68178;SDS011;54998;42.656;23.382;2023-03-01T16:10:16;5.80;;;2.45;;
68178;SDS011;54998;42.656;23.382;2023-03-01T16:12:42;6.28;;;3.17;;
68178;SDS011;54998;42.656;23.382;2023-03-01T16:15:18;6.40;;;2.78;;
68178;SDS011;54998;42.656;23.382;2023-03-01T16:17:46;5.68;;;2.75;;
68178;SDS011;54998;42.656;23.382;2023-03-01T16:20:12;5.22;;;2.58;;
68178;SDS011;54998;42.656;23.382;2023-03-01T16:22:40;9.27;;;2.95;;
68178;SDS011;54998;42.656;23.382;2023-03-01T16:25:08;6.22;;;3.00;;
68178;SDS011;54998;42.656;23.382;2023-03-01T16:27:34;10.32;;;4.25;;
68178;SDS011;54998;42.656;23.382;2023-03-01T16:29:59;7.68;;;2.95;;
68178;SDS011;54998;42.656;23.382;2023-03-01T16:32:25;7.68;;;3.50;;
68178;SDS011;54998;42.656;23.382;2023-03-01T16:34:50;5.35;;;2.45;;
68178;SDS011;54998;42.656;23.382;2023-03-01T16:37:16;6.18;;;2.33;;
68178;SDS011;54998;42.656;23.382;2023-03-01T16:39:41;8.63;;;3.15;;
68178;SDS011;54998;42.656;23.382;2023-03-01T16:42:07;7.15;;;3.03;;
68178;SDS011;54998;42.656;23.382;2023-03-01T16:44:32;5.55;;;2.72;;
68178;SDS011;54998;42.656;23.382;2023-03-01T16:46:58;9.73;;;3.70;;
68178;SDS011;54998;42.656;23.382;2023-03-01T16:49:23;3.22;;;1.73;;
68178;SDS011;54998;42.656;23.382;2023-03-01T16:51:48;2.90;;;1.52;;
68178;SDS011;54998;42.656;23.382;2023-03-01T16:54:14;3.58;;;1.85;;
68178;SDS011;54998;42.656;23.382;2023-03-01T16:56:39;4.50;;;1.85;;
68178;SDS011;54998;42.656;23.382;2023-03-01T16:59:05;3.33;;;1.17;;
68178;SDS011;54998;42.656;23.382;2023-03-01T17:01:31;4.35;;;2.08;;
68178;SDS011;54998;42.656;23.382;2023-03-01T17:04:04;10.48;;;2.78;;
68178;SDS011;54998;42.656;23.382;2023-03-01T17:06:30;2.92;;;1.17;;
68178;SDS011;54998;42.656;23.382;2023-03-01T17:08:57;3.03;;;1.33;;
68178;SDS011;54998;42.656;23.382;2023-03-01T17:11:24;4.18;;;1.90;;
68178;SDS011;54998;42.656;23.382;2023-03-01T17:13:50;5.25;;;2.42;;
68178;SDS011;54998;42.656;23.382;2023-03-01T17:16:17;7.07;;;2.60;;
68178;SDS011;54998;42.656;23.382;2023-03-01T17:18:44;6.32;;;3.30;;
68178;SDS011;54998;42.656;23.382;2023-03-01T17:21:10;9.73;;;4.18;;
68178;SDS011;54998;42.656;23.382;2023-03-01T17:23:36;10.40;;;3.25;;
68178;SDS011;54998;42.656;23.382;2023-03-01T17:28:30;5.53;;;2.42;;
68178;SDS011;54998;42.656;23.382;2023-03-01T17:30:57;6.05;;;1.98;;
68178;SDS011;54998;42.656;23.382;2023-03-01T17:33:23;8.85;;;3.72;;
68178;SDS011;54998;42.656;23.382;2023-03-01T17:35:49;8.43;;;2.92;;
68178;SDS011;54998;42.656;23.382;2023-03-01T17:38:14;6.63;;;2.83;;
68178;SDS011;54998;42.656;23.382;2023-03-01T17:40:41;7.50;;;3.10;;
68178;SDS011;54998;42.656;23.382;2023-03-01T17:43:10;9.52;;;4.20;;
68178;SDS011;54998;42.656;23.382;2023-03-01T17:45:36;10.40;;;4.18;;
68178;SDS011;54998;42.656;23.382;2023-03-01T17:48:03;7.85;;;3.40;;
68178;SDS011;54998;42.656;23.382;2023-03-01T17:50:28;8.85;;;3.95;;
68178;SDS011;54998;42.656;23.382;2023-03-01T17:52:54;9.68;;;4.47;;
68178;SDS011;54998;42.656;23.382;2023-03-01T17:55:22;11.55;;;4.50;;
68178;SDS011;54998;42.656;23.382;2023-03-01T17:57:48;8.30;;;3.60;;
68178;SDS011;54998;42.656;23.382;2023-03-01T18:00:14;9.68;;;3.55;;